createdAt,value
2022-12-27T00:00:40.552Z,6.04
2022-12-27T00:01:43.087Z,5.97
2022-12-27T00:02:44.672Z,5.88
2022-12-27T00:03:47.812Z,6.02
2022-12-27T00:04:50.204Z,6.09
2022-12-27T00:05:54.025Z,6.11
2022-12-27T00:06:55.971Z,6.19
2022-12-27T00:07:58.507Z,6.16
2022-12-27T00:09:01.879Z,6.18
2022-12-27T00:10:08.580Z,6.22
2022-12-27T00:11:12.407Z,6.23
2022-12-27T00:12:15.241Z,6.28
2022-12-27T00:13:16.920Z,6.20
2022-12-27T00:14:19.569Z,6.28
2022-12-27T00:15:24.049Z,6.33
2022-12-27T00:16:25.901Z,6.30
2022-12-27T00:17:31.353Z,6.34
2022-12-27T00:18:34.900Z,6.16
2022-12-27T00:19:37.384Z,6.01
2022-12-27T00:20:38.980Z,6.01
2022-12-27T00:21:46.161Z,5.73
2022-12-27T00:22:47.776Z,5.56
2022-12-27T00:23:52.960Z,5.54
2022-12-27T00:24:54.525Z,5.33
2022-12-27T00:26:01.333Z,5.20
2022-12-27T00:27:02.931Z,5.43
2022-12-27T00:28:05.631Z,5.31
2022-12-27T00:29:08.051Z,5.27
2022-12-27T00:30:11.511Z,5.04
2022-12-27T00:31:14.372Z,5.20
2022-12-27T00:32:16.914Z,5.29
2022-12-27T00:33:18.447Z,5.37
2022-12-27T00:34:20.979Z,5.37
2022-12-27T00:35:22.549Z,5.16
2022-12-27T00:36:27.884Z,4.94
2022-12-27T00:37:30.778Z,4.90
2022-12-27T00:38:33.740Z,5.07
2022-12-27T00:39:37.215Z,5.10
2022-12-27T00:40:39.996Z,4.99
2022-12-27T00:41:41.578Z,4.84
2022-12-27T00:42:44.061Z,5.03
2022-12-27T00:43:46.662Z,4.94
2022-12-27T00:44:50.897Z,5.01
2022-12-27T00:45:52.917Z,4.92
2022-12-27T00:46:55.584Z,4.81
2022-12-27T00:47:57.048Z,4.79
2022-12-27T00:48:59.795Z,4.81
2022-12-27T00:50:01.320Z,4.92
2022-12-27T00:51:07.083Z,4.78
2022-12-27T00:52:08.662Z,4.61
2022-12-27T00:53:13.093Z,4.67
2022-12-27T00:54:14.690Z,4.65
2022-12-27T00:55:17.887Z,4.69
2022-12-27T00:56:22.293Z,4.61
2022-12-27T00:57:24.988Z,4.51
2022-12-27T00:58:27.040Z,4.55
2022-12-27T00:59:29.618Z,4.52
2022-12-27T01:00:31.404Z,4.58
2022-12-27T01:01:36.459Z,4.49
2022-12-27T01:02:38.110Z,4.57
2022-12-27T01:03:40.884Z,4.43
2022-12-27T01:04:42.471Z,4.46
2022-12-27T01:05:45.175Z,4.41
2022-12-27T01:06:46.751Z,4.38
2022-12-27T01:07:49.783Z,4.22
2022-12-27T01:08:52.632Z,4.29
2022-12-27T01:09:55.133Z,4.27
2022-12-27T01:10:56.740Z,4.29
2022-12-27T01:11:59.214Z,4.18
2022-12-27T01:13:01.508Z,4.15
2022-12-27T01:14:07.318Z,4.21
2022-12-27T01:15:09.981Z,4.17
2022-12-27T01:16:17.520Z,4.17
2022-12-27T01:17:19.102Z,4.22
2022-12-27T01:18:21.684Z,4.21
2022-12-27T01:19:23.234Z,4.08
2022-12-27T01:20:25.734Z,3.98
2022-12-27T01:21:30.701Z,4.03
2022-12-27T01:22:33.510Z,4.01
2022-12-27T01:23:35.586Z,4.02
2022-12-27T01:24:39.508Z,3.97
2022-12-27T01:25:41.125Z,3.90
2022-12-27T01:26:45.524Z,3.99
2022-12-27T01:27:47.238Z,4.05
2022-12-27T01:28:50.714Z,4.05
2022-12-27T01:29:52.376Z,4.11
2022-12-27T01:30:54.827Z,4.05
2022-12-27T01:31:56.445Z,4.05
2022-12-27T01:33:01.198Z,4.04
2022-12-27T01:34:03.680Z,4.04
2022-12-27T01:35:05.766Z,4.04
2022-12-27T01:36:15.404Z,4.04
2022-12-27T01:37:16.932Z,3.95
2022-12-27T01:38:19.369Z,3.82
2022-12-27T01:39:21.091Z,3.87
2022-12-27T01:40:25.981Z,3.90
2022-12-27T01:41:48.314Z,3.87
2022-12-27T01:42:56.020Z,3.90
2022-12-27T01:43:59.310Z,3.86
2022-12-27T01:45:02.433Z,3.77
2022-12-27T01:46:04.298Z,3.72
2022-12-27T01:47:15.469Z,3.72
2022-12-27T01:48:23.097Z,3.53
2022-12-27T01:49:24.738Z,3.46
2022-12-27T01:50:31.629Z,3.31
2022-12-27T01:51:33.200Z,3.38
2022-12-27T01:52:41.970Z,3.38
2022-12-27T01:53:49.121Z,3.37
2022-12-27T01:54:52.228Z,3.32
2022-12-27T01:56:01.822Z,3.37
2022-12-27T01:57:04.379Z,3.29
2022-12-27T01:58:12.642Z,3.21
2022-12-27T01:59:14.960Z,3.30
2022-12-27T02:00:19.958Z,3.28
2022-12-27T02:01:27.782Z,3.33
2022-12-27T02:02:30.703Z,3.36
2022-12-27T02:03:37.654Z,3.37
2022-12-27T02:04:40.246Z,3.40
2022-12-27T02:05:43.491Z,3.37
2022-12-27T02:06:46.794Z,3.54
2022-12-27T02:07:58.658Z,3.50
2022-12-27T02:09:09.202Z,3.50
2022-12-27T02:10:12.026Z,3.45
2022-12-27T02:11:15.709Z,3.61
2022-12-27T02:12:20.273Z,3.57
2022-12-27T02:13:22.920Z,3.49
2022-12-27T02:14:33.195Z,3.49
2022-12-27T02:15:35.812Z,3.35
2022-12-27T02:16:40.608Z,3.33
2022-12-27T02:17:43.392Z,3.33
2022-12-27T02:18:47.242Z,3.35
2022-12-27T02:19:57.312Z,3.30
2022-12-27T02:21:24.670Z,3.15
2022-12-27T02:23:24.054Z,3.18
2022-12-27T02:24:48.938Z,3.21
2022-12-27T02:26:17.037Z,3.20
2022-12-27T02:27:39.865Z,3.18
2022-12-27T02:28:58.862Z,3.23
2022-12-27T02:30:05.123Z,3.21
2022-12-27T02:31:12.781Z,3.16
2022-12-27T02:32:20.565Z,3.25
2022-12-27T02:33:28.093Z,3.35
2022-12-27T02:34:35.606Z,3.45
2022-12-27T02:35:41.632Z,3.44
2022-12-27T02:36:46.757Z,3.49
2022-12-27T02:37:55.410Z,3.32
2022-12-27T02:39:01.062Z,3.37
2022-12-27T02:40:21.957Z,3.44
2022-12-27T02:41:44.069Z,3.41
2022-12-27T02:43:04.403Z,3.40
2022-12-27T02:44:26.204Z,3.20
2022-12-27T02:45:49.724Z,3.23
2022-12-27T02:47:11.273Z,3.31
2022-12-27T02:48:44.837Z,3.32
2022-12-27T02:50:05.059Z,3.23
2022-12-27T02:51:39.004Z,3.30
2022-12-27T02:53:05.111Z,3.19
2022-12-27T02:54:22.482Z,3.26
2022-12-27T02:55:35.262Z,3.19
2022-12-27T02:57:03.763Z,3.25
2022-12-27T02:58:23.387Z,3.16
2022-12-27T03:00:03.044Z,3.01
2022-12-27T03:01:34.543Z,2.96
2022-12-27T03:03:03.703Z,3.00
2022-12-27T03:04:23.734Z,2.97
2022-12-27T03:05:38.049Z,2.99
2022-12-27T03:06:58.317Z,3.02
2022-12-27T03:08:09.808Z,2.91
2022-12-27T03:10:02.123Z,2.90
2022-12-27T03:11:37.189Z,2.83
2022-12-27T03:13:07.776Z,2.92
2022-12-27T03:14:36.260Z,2.82
2022-12-27T03:15:56.940Z,2.80
2022-12-27T03:17:03.294Z,2.86
2022-12-27T03:18:10.828Z,2.86
2022-12-27T03:19:39.489Z,2.83
2022-12-27T03:21:02.376Z,2.82
2022-12-27T03:22:32.127Z,2.97
2022-12-27T03:23:53.740Z,2.88
2022-12-27T03:25:15.465Z,2.82
2022-12-27T03:26:19.641Z,2.86
2022-12-27T03:27:28.510Z,2.92
2022-12-27T03:28:51.047Z,2.90
2022-12-27T03:30:14.075Z,2.96
2022-12-27T03:31:42.136Z,3.03
2022-12-27T03:33:07.238Z,2.89
2022-12-27T03:34:32.925Z,2.85
2022-12-27T03:35:40.143Z,2.93
2022-12-27T03:37:00.530Z,3.03
2022-12-27T03:38:05.398Z,2.97
2022-12-27T03:39:13.080Z,3.04
2022-12-27T03:40:21.630Z,3.19
2022-12-27T03:41:46.820Z,3.33
2022-12-27T03:43:11.691Z,3.52
2022-12-27T03:44:24.573Z,3.03
2022-12-27T03:45:46.441Z,2.99
2022-12-27T03:46:52.759Z,2.82
2022-12-27T03:48:02.933Z,3.01
2022-12-27T03:49:19.290Z,3.14
2022-12-27T03:50:25.964Z,3.12
2022-12-27T03:51:33.488Z,3.18
2022-12-27T03:52:41.633Z,2.97
2022-12-27T03:53:45.973Z,3.07
2022-12-27T03:54:50.665Z,2.96
2022-12-27T03:55:53.720Z,2.91
2022-12-27T03:56:58.229Z,2.92
2022-12-27T03:58:01.009Z,2.91
2022-12-27T03:59:04.491Z,3.00
2022-12-27T04:00:09.042Z,3.02
2022-12-27T04:01:10.709Z,3.01
2022-12-27T04:02:15.239Z,3.03
2022-12-27T04:03:16.900Z,3.08
2022-12-27T04:04:19.646Z,3.12
2022-12-27T04:05:21.410Z,3.01
2022-12-27T04:06:23.965Z,3.02
2022-12-27T04:07:25.580Z,2.91
2022-12-27T04:08:45.699Z,2.96
2022-12-27T04:10:06.233Z,3.20
2022-12-27T04:11:26.501Z,3.19
2022-12-27T04:12:46.411Z,3.12
2022-12-27T04:14:06.228Z,3.16
2022-12-27T04:15:26.577Z,3.29
2022-12-27T04:16:46.940Z,3.16
2022-12-27T04:18:08.535Z,3.18
2022-12-27T04:19:28.581Z,3.17
2022-12-27T04:20:48.624Z,3.13
2022-12-27T04:22:08.763Z,3.20
2022-12-27T04:23:28.843Z,3.12
2022-12-27T04:24:49.018Z,3.22
2022-12-27T04:26:09.379Z,3.28
2022-12-27T04:27:32.161Z,3.30
2022-12-27T04:28:52.848Z,3.21
2022-12-27T04:30:13.303Z,3.22
2022-12-27T04:31:33.214Z,3.24
2022-12-27T04:32:52.963Z,3.20
2022-12-27T04:34:14.493Z,3.18
2022-12-27T04:35:17.197Z,3.23
2022-12-27T04:36:18.715Z,3.23
2022-12-27T04:37:21.598Z,3.31
2022-12-27T04:38:23.051Z,3.31
2022-12-27T04:39:25.605Z,3.32
2022-12-27T04:40:45.316Z,3.26
2022-12-27T04:42:05.211Z,3.19
2022-12-27T04:43:26.861Z,3.21
2022-12-27T04:44:47.269Z,3.22
2022-12-27T04:46:09.929Z,3.14
2022-12-27T04:47:31.969Z,3.15
2022-12-27T04:48:51.412Z,3.24
2022-12-27T04:50:13.206Z,3.17
2022-12-27T04:51:33.215Z,3.11
2022-12-27T04:52:53.639Z,3.20
2022-12-27T04:54:16.377Z,3.14
2022-12-27T04:55:21.703Z,3.14
2022-12-27T04:56:23.184Z,3.26
2022-12-27T04:57:26.439Z,3.33
2022-12-27T04:58:28.413Z,3.36
2022-12-27T04:59:48.691Z,3.35
2022-12-27T05:01:14.599Z,3.39
2022-12-27T05:02:19.242Z,3.54
2022-12-27T05:03:24.246Z,3.60
2022-12-27T05:04:26.358Z,3.53
2022-12-27T05:05:30.413Z,3.55
2022-12-27T05:06:31.975Z,3.63
2022-12-27T05:07:51.819Z,3.61
2022-12-27T05:09:12.055Z,3.70
2022-12-27T05:10:32.252Z,3.76
2022-12-27T05:11:52.284Z,3.62
2022-12-27T05:13:12.252Z,3.38
2022-12-27T05:14:16.188Z,3.27
2022-12-27T05:15:17.848Z,3.38
2022-12-27T05:16:20.544Z,3.41
2022-12-27T05:17:22.105Z,3.53
2022-12-27T05:18:24.819Z,3.59
2022-12-27T05:19:26.378Z,3.62
2022-12-27T05:20:30.143Z,3.68
2022-12-27T05:21:36.891Z,3.57
2022-12-27T05:22:56.902Z,3.44
2022-12-27T05:24:16.849Z,3.46
2022-12-27T05:25:38.429Z,3.63
2022-12-27T05:26:41.069Z,3.72
2022-12-27T05:27:42.604Z,3.44
2022-12-27T05:28:48.296Z,3.35
2022-12-27T05:29:49.879Z,3.40
2022-12-27T05:30:52.720Z,3.36
2022-12-27T05:31:55.112Z,3.37
2022-12-27T05:32:56.634Z,3.34
2022-12-27T05:33:59.271Z,3.46
2022-12-27T05:35:00.797Z,3.55
2022-12-27T05:36:05.052Z,3.47
2022-12-27T05:37:06.522Z,3.43
2022-12-27T05:38:09.119Z,3.42
2022-12-27T05:39:11.558Z,3.41
2022-12-27T05:40:13.280Z,3.50
2022-12-27T05:41:15.864Z,3.30
2022-12-27T05:42:17.347Z,3.27
2022-12-27T05:43:19.770Z,3.37
2022-12-27T05:44:21.387Z,3.34
2022-12-27T05:45:23.881Z,3.28
2022-12-27T05:46:26.325Z,3.22
2022-12-27T05:47:27.808Z,3.22
2022-12-27T05:48:30.228Z,3.29
2022-12-27T05:49:31.757Z,3.25
2022-12-27T05:50:34.268Z,3.29
2022-12-27T05:51:37.072Z,3.37
2022-12-27T05:52:41.368Z,3.35
2022-12-27T05:53:43.633Z,3.38
2022-12-27T05:54:46.083Z,3.41
2022-12-27T05:55:53.949Z,3.43
2022-12-27T05:56:56.355Z,3.30
2022-12-27T05:57:57.838Z,3.32
2022-12-27T05:59:01.349Z,3.07
2022-12-27T06:00:03.904Z,3.12
2022-12-27T06:01:10.145Z,3.17
2022-12-27T06:02:11.747Z,3.21
2022-12-27T06:03:14.519Z,3.25
2022-12-27T06:04:16.120Z,3.26
2022-12-27T06:05:18.826Z,3.20
2022-12-27T06:06:20.578Z,3.20
2022-12-27T06:07:24.433Z,3.25
2022-12-27T06:08:25.940Z,3.35
2022-12-27T06:09:28.815Z,3.31
2022-12-27T06:10:30.431Z,3.40
2022-12-27T06:11:32.847Z,3.39
2022-12-27T06:12:34.539Z,3.36
2022-12-27T06:13:38.539Z,3.41
2022-12-27T06:14:41.324Z,3.25
2022-12-27T06:15:43.919Z,3.26
2022-12-27T06:16:45.608Z,3.23
2022-12-27T06:17:48.194Z,3.27
2022-12-27T06:18:50.012Z,3.20
2022-12-27T06:19:56.812Z,3.20
2022-12-27T06:21:04.308Z,3.18
2022-12-27T06:22:05.855Z,3.19
2022-12-27T06:23:10.787Z,3.26
2022-12-27T06:24:12.304Z,3.35
2022-12-27T06:25:14.901Z,3.38
2022-12-27T06:26:19.240Z,3.44
2022-12-27T06:27:24.080Z,3.43
2022-12-27T06:28:25.596Z,3.55
2022-12-27T06:29:28.123Z,3.50
2022-12-27T06:30:35.821Z,3.32
2022-12-27T06:31:39.107Z,3.34
2022-12-27T06:32:40.740Z,3.43
2022-12-27T06:33:43.328Z,3.50
2022-12-27T06:34:45.471Z,3.48
2022-12-27T06:35:47.917Z,3.60
2022-12-27T06:36:50.933Z,3.60
2022-12-27T06:37:53.381Z,3.53
2022-12-27T06:38:56.378Z,3.48
2022-12-27T06:39:58.911Z,3.53
2022-12-27T06:41:01.292Z,3.49
2022-12-27T06:42:05.947Z,3.46
2022-12-27T06:43:07.473Z,3.51
2022-12-27T06:44:10.498Z,3.39
2022-12-27T06:45:12.922Z,3.52
2022-12-27T06:46:17.888Z,3.36
2022-12-27T06:47:20.716Z,3.43
2022-12-27T06:48:22.225Z,3.43
2022-12-27T06:49:25.763Z,3.49
2022-12-27T06:50:27.301Z,3.52
2022-12-27T06:51:29.787Z,3.56
2022-12-27T06:52:31.326Z,3.57
2022-12-27T06:53:33.970Z,3.50
2022-12-27T06:54:38.099Z,3.57
2022-12-27T06:55:40.533Z,3.54
2022-12-27T06:56:43.370Z,3.54
2022-12-27T06:57:45.936Z,3.52
2022-12-27T06:58:48.927Z,3.64
2022-12-27T06:59:54.145Z,3.67
2022-12-27T07:00:55.878Z,3.60
2022-12-27T07:01:58.728Z,3.60
2022-12-27T07:03:00.402Z,3.55
2022-12-27T07:04:03.252Z,3.59
2022-12-27T07:05:05.760Z,3.60
2022-12-27T07:06:11.484Z,3.59
2022-12-27T07:07:15.782Z,3.63
2022-12-27T07:08:18.672Z,3.69
2022-12-27T07:09:20.294Z,3.69
2022-12-27T07:10:24.145Z,3.67
2022-12-27T07:11:26.006Z,3.75
2022-12-27T07:12:31.781Z,3.77
2022-12-27T07:13:40.310Z,3.80
2022-12-27T07:14:42.770Z,3.86
2022-12-27T07:15:44.248Z,3.84
2022-12-27T07:16:46.720Z,3.95
2022-12-27T07:17:48.231Z,3.84
2022-12-27T07:18:51.147Z,3.90
2022-12-27T07:19:53.607Z,3.96
2022-12-27T07:20:55.128Z,3.93
2022-12-27T07:21:57.540Z,3.86
2022-12-27T07:23:00.007Z,3.81
2022-12-27T07:24:02.496Z,3.82
2022-12-27T07:25:04.773Z,3.83
2022-12-27T07:26:10.991Z,3.78
2022-12-27T07:27:15.051Z,3.78
2022-12-27T07:28:16.574Z,3.90
2022-12-27T07:29:19.031Z,3.94
2022-12-27T07:30:20.478Z,3.87
2022-12-27T07:31:26.357Z,3.93
2022-12-27T07:32:28.046Z,3.89
2022-12-27T07:33:30.573Z,3.87
2022-12-27T07:34:33.382Z,3.95
2022-12-27T07:35:34.875Z,4.00
2022-12-27T07:36:39.997Z,4.01
2022-12-27T07:37:41.580Z,3.99
2022-12-27T07:38:44.640Z,4.05
2022-12-27T07:39:47.791Z,4.00
2022-12-27T07:40:49.261Z,4.10
2022-12-27T07:41:53.036Z,4.21
2022-12-27T07:42:54.698Z,4.07
2022-12-27T07:43:57.224Z,4.14
2022-12-27T07:44:59.205Z,4.21
2022-12-27T07:46:06.049Z,4.20
2022-12-27T07:47:07.825Z,4.16
2022-12-27T07:48:10.772Z,4.13
2022-12-27T07:49:17.581Z,4.12
2022-12-27T07:50:20.929Z,3.91
2022-12-27T07:51:23.561Z,4.02
2022-12-27T07:52:27.107Z,4.02
2022-12-27T07:53:30.905Z,4.12
2022-12-27T07:54:33.569Z,4.21
2022-12-27T07:55:35.131Z,4.15
2022-12-27T07:56:39.175Z,4.11
2022-12-27T07:57:42.167Z,4.01
2022-12-27T07:58:46.224Z,4.00
2022-12-27T07:59:47.757Z,4.01
2022-12-27T08:00:52.133Z,4.03
2022-12-27T08:02:05.445Z,4.02
2022-12-27T08:03:08.159Z,4.07
2022-12-27T08:04:09.735Z,4.11
2022-12-27T08:05:12.207Z,4.16
2022-12-27T08:06:22.105Z,4.24
2022-12-27T08:07:26.381Z,4.29
2022-12-27T08:08:33.224Z,4.33
2022-12-27T08:09:40.061Z,4.37
2022-12-27T08:10:41.753Z,4.47
2022-12-27T08:11:47.284Z,4.35
2022-12-27T08:12:52.481Z,4.40
2022-12-27T08:13:55.041Z,4.35
2022-12-27T08:14:57.168Z,4.37
2022-12-27T08:15:59.704Z,4.30
2022-12-27T08:17:05.122Z,4.41
2022-12-27T08:18:08.053Z,4.37
2022-12-27T08:19:09.751Z,4.37
2022-12-27T08:20:15.026Z,4.42
2022-12-27T08:21:17.119Z,4.38
2022-12-27T08:22:19.741Z,4.43
2022-12-27T08:23:21.620Z,4.44
2022-12-27T08:24:24.513Z,4.39
2022-12-27T08:25:27.793Z,4.34
2022-12-27T08:26:30.413Z,4.37
2022-12-27T08:27:33.374Z,4.37
2022-12-27T08:28:36.852Z,4.35
2022-12-27T08:29:39.991Z,4.44
2022-12-27T08:30:44.035Z,4.41
2022-12-27T08:31:46.662Z,4.58
2022-12-27T08:32:50.778Z,4.65
2022-12-27T08:33:58.287Z,4.66
2022-12-27T08:35:24.568Z,4.69
2022-12-27T08:36:53.345Z,4.54
2022-12-27T08:37:44.375Z,4.51
2022-12-27T08:38:46.780Z,4.55
2022-12-27T08:39:49.569Z,4.63
2022-12-27T08:40:53.249Z,4.71
2022-12-27T08:41:55.708Z,4.70
2022-12-27T08:42:57.585Z,4.60
2022-12-27T08:44:01.469Z,4.63
2022-12-27T08:45:03.448Z,4.64
2022-12-27T08:46:07.847Z,4.69
2022-12-27T08:47:09.519Z,4.72
2022-12-27T08:48:12.203Z,4.72
2022-12-27T08:49:13.836Z,4.76
2022-12-27T08:50:16.475Z,4.71
2022-12-27T08:51:31.343Z,4.71
2022-12-27T08:52:38.297Z,4.89
2022-12-27T08:53:39.852Z,4.89
2022-12-27T08:54:42.324Z,5.03
2022-12-27T08:55:43.917Z,4.95
2022-12-27T08:56:46.539Z,4.88
2022-12-27T08:57:51.192Z,4.93
2022-12-27T08:58:53.844Z,4.95
2022-12-27T08:59:56.926Z,4.93
2022-12-27T09:01:06.244Z,5.06
2022-12-27T09:02:09.868Z,5.03
2022-12-27T09:03:12.655Z,5.04
2022-12-27T09:04:14.207Z,5.07
2022-12-27T09:05:17.102Z,5.14
2022-12-27T09:06:20.505Z,5.11
2022-12-27T09:07:23.052Z,5.20
2022-12-27T09:08:24.563Z,5.27
2022-12-27T09:09:27.123Z,5.22
2022-12-27T09:10:31.504Z,5.22
2022-12-27T09:11:35.628Z,5.21
2022-12-27T09:12:37.110Z,5.21
2022-12-27T09:13:39.607Z,5.28
2022-12-27T09:14:42.173Z,5.31
2022-12-27T09:15:46.326Z,5.33
2022-12-27T09:16:48.887Z,5.30
2022-12-27T09:17:50.563Z,5.39
2022-12-27T09:18:54.980Z,5.42
2022-12-27T09:19:56.585Z,5.44
2022-12-27T09:21:05.010Z,5.44
2022-12-27T09:22:07.571Z,5.45
2022-12-27T09:23:09.079Z,5.53
2022-12-27T09:24:13.051Z,5.65
2022-12-27T09:25:14.709Z,5.65
2022-12-27T09:26:19.582Z,5.63
2022-12-27T09:27:21.137Z,5.56
2022-12-27T09:28:23.623Z,5.55
2022-12-27T09:29:27.323Z,5.45
2022-12-27T09:30:31.651Z,5.49
2022-12-27T09:31:35.515Z,5.60
2022-12-27T09:32:37.081Z,5.81
2022-12-27T09:33:39.906Z,5.83
2022-12-27T09:34:41.546Z,5.88
2022-12-27T09:35:44.502Z,5.86
2022-12-27T09:36:45.980Z,5.84
2022-12-27T09:37:48.416Z,5.74
2022-12-27T09:38:52.609Z,5.84
2022-12-27T09:39:55.063Z,5.93
2022-12-27T09:40:59.211Z,5.98
2022-12-27T09:42:46.681Z,5.91
2022-12-27T09:43:41.554Z,6.09
2022-12-27T09:44:51.006Z,6.16
2022-12-27T09:45:57.331Z,6.07
2022-12-27T09:47:05.271Z,6.13
2022-12-27T09:48:17.154Z,6.00
2022-12-27T09:49:26.122Z,5.90
2022-12-27T09:50:36.905Z,5.83
2022-12-27T09:51:43.697Z,5.82
2022-12-27T09:52:56.300Z,5.79
2022-12-27T09:54:06.173Z,5.90
2022-12-27T09:55:15.268Z,5.94
2022-12-27T09:56:25.096Z,6.04
2022-12-27T09:57:33.245Z,6.01
2022-12-27T09:58:42.075Z,6.09
2022-12-27T09:59:48.767Z,5.94
2022-12-27T10:00:50.972Z,6.07
2022-12-27T10:01:53.714Z,6.18
2022-12-27T10:02:59.184Z,6.20
2022-12-27T10:04:01.930Z,6.23
2022-12-27T10:05:22.008Z,6.22
2022-12-27T10:06:43.440Z,6.17
2022-12-27T10:07:54.723Z,6.11
2022-12-27T10:09:03.881Z,6.04
2022-12-27T10:10:14.656Z,6.24
2022-12-27T10:11:35.496Z,6.29
2022-12-27T10:13:08.184Z,6.57
2022-12-27T10:14:26.905Z,6.94
2022-12-27T10:15:35.515Z,7.10
2022-12-27T10:16:43.482Z,7.13
2022-12-27T10:17:54.964Z,7.69
2022-12-27T10:19:14.569Z,8.52
2022-12-27T10:20:25.395Z,8.84
2022-12-27T10:21:28.912Z,9.14
2022-12-27T10:22:35.300Z,9.17
2022-12-27T10:23:42.978Z,8.93
2022-12-27T10:24:49.368Z,8.65
2022-12-27T10:25:58.169Z,8.68
2022-12-27T10:26:59.889Z,8.77
2022-12-27T10:28:11.563Z,8.24
2022-12-27T10:29:19.945Z,7.62
2022-12-27T10:30:23.740Z,7.58
2022-12-27T10:31:26.970Z,7.46
2022-12-27T10:32:29.564Z,7.02
2022-12-27T10:33:33.920Z,6.97
2022-12-27T10:34:41.176Z,6.90
2022-12-27T10:35:47.131Z,6.96
2022-12-27T10:36:50.153Z,6.87
2022-12-27T10:37:54.272Z,6.71
2022-12-27T10:38:56.956Z,6.66
2022-12-27T10:40:11.494Z,6.74
2022-12-27T10:41:28.067Z,6.61
2022-12-27T10:42:38.938Z,6.52
2022-12-27T10:43:43.103Z,6.37
2022-12-27T10:44:45.266Z,6.41
2022-12-27T10:45:48.477Z,6.39
2022-12-27T10:46:53.944Z,6.45
2022-12-27T10:47:58.576Z,6.54
2022-12-27T10:50:30.739Z,6.48
2022-12-27T10:51:36.113Z,6.28
2022-12-27T10:52:39.482Z,6.19
2022-12-27T10:53:58.568Z,6.29
2022-12-27T10:55:02.477Z,6.26
2022-12-27T10:56:18.230Z,6.19
2022-12-27T10:57:28.006Z,6.20
2022-12-27T10:58:38.671Z,6.24
2022-12-27T10:59:41.869Z,6.20
2022-12-27T11:00:54.761Z,6.26
2022-12-27T11:02:18.160Z,6.28
2022-12-27T11:03:20.285Z,6.20
2022-12-27T11:04:24.677Z,6.11
2022-12-27T11:05:30.427Z,6.16
2022-12-27T11:06:34.247Z,6.11
2022-12-27T11:07:38.024Z,6.16
2022-12-27T11:08:40.355Z,6.12
2022-12-27T11:09:50.871Z,6.12
2022-12-27T11:11:12.984Z,6.23
2022-12-27T11:12:21.077Z,6.23
2022-12-27T11:13:23.371Z,6.18
2022-12-27T11:14:29.951Z,6.19
2022-12-27T11:15:34.889Z,6.29
2022-12-27T11:16:38.697Z,6.35
2022-12-27T11:17:43.796Z,6.45
2022-12-27T11:18:50.651Z,6.51
2022-12-27T11:19:53.532Z,6.64
2022-12-27T11:21:01.208Z,6.75
2022-12-27T11:22:07.506Z,6.59
2022-12-27T11:23:16.709Z,6.53
2022-12-27T11:24:20.615Z,6.51
2022-12-27T11:25:24.504Z,6.51
2022-12-27T11:26:30.922Z,6.47
2022-12-27T11:27:33.240Z,6.44
2022-12-27T11:28:40.661Z,6.64
2022-12-27T11:29:46.186Z,6.62
2022-12-27T11:30:55.753Z,6.55
2022-12-27T11:32:06.489Z,6.55
2022-12-27T11:33:24.573Z,6.55
2022-12-27T11:34:32.163Z,6.56
2022-12-27T11:35:47.419Z,6.72
2022-12-27T11:36:53.766Z,6.83
2022-12-27T11:37:57.349Z,6.83
2022-12-27T11:39:00.947Z,6.98
2022-12-27T11:40:23.673Z,6.96
2022-12-27T11:41:46.770Z,7.15
2022-12-27T11:42:53.111Z,7.39
2022-12-27T11:44:03.810Z,8.31
2022-12-27T11:45:14.059Z,9.31
2022-12-27T11:46:26.932Z,9.94
2022-12-27T11:47:38.367Z,11.22
2022-12-27T11:48:44.551Z,11.58
2022-12-27T11:49:56.071Z,11.87
2022-12-27T11:51:14.349Z,11.84
2022-12-27T11:52:44.972Z,12.44
2022-12-27T11:54:10.996Z,12.87
2022-12-27T11:55:27.513Z,12.57
2022-12-27T11:56:31.590Z,12.54
2022-12-27T11:57:57.867Z,12.65
2022-12-27T11:59:38.885Z,12.74
2022-12-27T12:00:49.791Z,12.95
2022-12-27T12:02:19.844Z,12.78
2022-12-27T12:03:53.467Z,12.72
2022-12-27T12:05:47.358Z,12.79
2022-12-27T12:06:59.221Z,13.51
2022-12-27T12:08:38.430Z,13.49
2022-12-27T12:10:09.534Z,13.57
2022-12-27T12:11:18.251Z,12.58
2022-12-27T12:12:47.144Z,12.84
2022-12-27T12:14:05.144Z,12.66
2022-12-27T12:15:35.461Z,12.92
2022-12-27T12:16:55.841Z,13.63
2022-12-27T12:18:23.668Z,14.37
2022-12-27T12:19:44.308Z,13.59
2022-12-27T12:21:09.773Z,13.48
2022-12-27T12:22:27.049Z,13.50
2022-12-27T12:23:47.477Z,13.85
2022-12-27T12:25:24.490Z,13.65
2022-12-27T12:26:29.247Z,12.49
2022-12-27T12:27:45.746Z,12.71
2022-12-27T12:29:18.345Z,12.65
2022-12-27T12:30:47.445Z,12.91
2022-12-27T12:32:07.655Z,13.91
2022-12-27T12:33:37.753Z,13.52
2022-12-27T12:35:00.667Z,13.27
2022-12-27T12:36:32.577Z,12.70
2022-12-27T12:37:54.856Z,12.80
2022-12-27T12:39:10.511Z,13.47
2022-12-27T12:40:31.798Z,12.91
2022-12-27T12:42:04.833Z,13.03
2022-12-27T12:43:20.538Z,13.09
2022-12-27T12:44:45.237Z,13.30
2022-12-27T12:46:08.758Z,13.43
2022-12-27T12:47:26.506Z,13.36
2022-12-27T12:48:52.016Z,14.02
2022-12-27T12:50:17.796Z,13.73
2022-12-27T12:51:51.311Z,13.67
2022-12-27T12:53:14.906Z,14.06
2022-12-27T12:54:36.051Z,13.30
2022-12-27T12:55:52.858Z,13.22
2022-12-27T12:57:07.822Z,13.41
2022-12-27T12:58:26.227Z,13.36
2022-12-27T13:00:04.784Z,13.33
2022-12-27T13:01:23.998Z,13.59
2022-12-27T13:02:49.969Z,12.33
2022-12-27T13:04:19.960Z,11.70
2022-12-27T13:05:28.079Z,11.92
2022-12-27T13:06:59.700Z,11.87
2022-12-27T13:08:11.251Z,11.11
2022-12-27T13:09:24.091Z,11.13
2022-12-27T13:10:52.607Z,10.80
2022-12-27T13:12:04.122Z,10.16
2022-12-27T13:13:14.597Z,10.05
2022-12-27T13:14:33.508Z,10.12
2022-12-27T13:15:50.625Z,10.07
2022-12-27T13:17:01.968Z,9.79
2022-12-27T13:18:18.118Z,9.61
2022-12-27T13:19:37.416Z,9.39
2022-12-27T13:20:57.385Z,9.39
2022-12-27T13:22:09.964Z,9.26
2022-12-27T13:23:23.823Z,8.94
2022-12-27T13:24:39.248Z,8.98
2022-12-27T13:25:50.166Z,8.71
2022-12-27T13:26:59.580Z,8.69
2022-12-27T13:28:14.912Z,8.49
2022-12-27T13:29:35.930Z,8.45
2022-12-27T13:30:41.898Z,8.27
2022-12-27T13:31:52.795Z,8.34
2022-12-27T13:33:02.944Z,8.06
2022-12-27T13:34:26.287Z,8.05
2022-12-27T13:35:41.068Z,8.00
2022-12-27T13:36:58.186Z,7.91
2022-12-27T13:38:25.879Z,7.77
2022-12-27T13:39:48.192Z,7.65
2022-12-27T13:41:04.865Z,7.62
2022-12-27T13:42:32.030Z,7.56
2022-12-27T13:43:53.090Z,7.46
2022-12-27T13:45:01.454Z,7.56
2022-12-27T13:46:18.286Z,7.61
2022-12-27T13:47:48.554Z,7.66
2022-12-27T13:49:10.833Z,7.67
2022-12-27T13:50:38.454Z,7.55
2022-12-27T13:51:46.679Z,7.61
2022-12-27T13:53:01.717Z,7.56
2022-12-27T13:54:45.964Z,7.44
2022-12-27T13:55:56.508Z,7.40
2022-12-27T13:57:12.426Z,7.49
2022-12-27T13:58:42.760Z,7.40
2022-12-27T14:00:00.690Z,7.47
2022-12-27T14:01:23.952Z,7.48
2022-12-27T14:02:50.596Z,7.20
2022-12-27T14:04:09.534Z,7.20
2022-12-27T14:05:50.721Z,7.25
2022-12-27T14:07:12.818Z,7.39
2022-12-27T14:08:25.318Z,7.30
2022-12-27T14:09:45.523Z,7.35
2022-12-27T14:10:52.816Z,7.16
2022-12-27T14:12:22.425Z,7.10
2022-12-27T14:13:29.379Z,7.15
2022-12-27T14:14:34.364Z,7.26
2022-12-27T14:16:06.887Z,7.34
2022-12-27T14:17:27.194Z,7.34
2022-12-27T14:18:48.229Z,7.50
2022-12-27T14:20:00.008Z,7.38
2022-12-27T14:21:17.337Z,7.40
2022-12-27T14:22:53.820Z,7.41
2022-12-27T14:24:09.370Z,7.24
2022-12-27T14:25:44.910Z,7.19
2022-12-27T14:27:14.218Z,7.05
2022-12-27T14:28:44.968Z,6.93
2022-12-27T14:30:35.734Z,6.93
2022-12-27T14:32:25.556Z,6.91
2022-12-27T14:34:09.304Z,6.88
2022-12-27T14:36:04.316Z,6.85
2022-12-27T14:37:31.389Z,6.93
2022-12-27T14:38:57.715Z,7.02
2022-12-27T14:40:34.941Z,6.89
2022-12-27T14:42:05.311Z,6.98
2022-12-27T14:43:46.498Z,6.83
2022-12-27T14:45:24.781Z,6.81
2022-12-27T14:47:05.722Z,6.99
2022-12-27T14:48:47.313Z,6.89
2022-12-27T14:50:23.935Z,6.83
2022-12-27T14:52:04.475Z,6.76
2022-12-27T14:54:02.587Z,6.86
2022-12-27T14:55:24.875Z,6.83
2022-12-27T14:56:33.772Z,6.92
2022-12-27T14:57:42.467Z,7.05
2022-12-27T14:58:58.852Z,7.03
2022-12-27T15:00:08.024Z,7.14
2022-12-27T15:01:22.263Z,7.07
2022-12-27T15:02:42.272Z,6.90
2022-12-27T15:04:00.152Z,6.84
2022-12-27T15:05:17.577Z,6.82
2022-12-27T15:06:33.804Z,6.91
2022-12-27T15:07:47.992Z,6.39
2022-12-27T15:09:05.407Z,6.55
2022-12-27T15:10:18.869Z,6.30
2022-12-27T15:11:38.600Z,5.97
2022-12-27T15:12:47.687Z,6.10
2022-12-27T15:14:02.959Z,6.23
2022-12-27T15:15:18.503Z,6.43
2022-12-27T15:16:35.089Z,6.63
2022-12-27T15:18:00.701Z,6.69
2022-12-27T15:19:17.727Z,6.77
2022-12-27T15:20:38.664Z,6.77
2022-12-27T15:21:50.744Z,6.66
2022-12-27T15:23:07.018Z,6.57
2022-12-27T15:24:21.155Z,6.60
2022-12-27T15:25:33.193Z,6.52
2022-12-27T15:26:41.564Z,6.33
2022-12-27T15:27:50.677Z,6.23
2022-12-27T15:29:09.570Z,6.28
2022-12-27T15:30:23.669Z,6.46
2022-12-27T15:31:38.608Z,6.49
2022-12-27T15:32:53.025Z,6.57
2022-12-27T15:34:11.734Z,6.49
2022-12-27T15:35:36.452Z,6.71